createdAt,value
2019-03-18T00:01:17.563Z,78.46
2019-03-18T00:03:48.884Z,78.60
2019-03-18T00:06:20.087Z,78.66
2019-03-18T00:08:51.408Z,78.62
2019-03-18T00:11:22.763Z,78.27
2019-03-18T00:13:54.082Z,78.51
2019-03-18T00:16:25.473Z,78.71
2019-03-18T00:18:58.153Z,78.93
2019-03-18T00:21:30.010Z,78.84
2019-03-18T00:24:01.869Z,78.87
2019-03-18T00:26:33.479Z,79.05
2019-03-18T00:29:04.775Z,79.31
2019-03-18T00:31:36.079Z,79.12
2019-03-18T00:34:07.392Z,79.09
2019-03-18T00:36:38.719Z,79.18
2019-03-18T00:39:10.056Z,79.29
2019-03-18T00:41:41.400Z,79.21
2019-03-18T00:44:12.687Z,79.02
2019-03-18T00:46:43.883Z,79.01
2019-03-18T00:49:15.065Z,78.76
2019-03-18T00:51:46.361Z,78.62
2019-03-18T00:54:17.679Z,78.90
2019-03-18T00:56:49.059Z,78.72
2019-03-18T00:59:20.356Z,79.10
2019-03-18T01:01:51.661Z,78.74
2019-03-18T01:04:23.024Z,78.78
2019-03-18T01:06:54.374Z,78.73
2019-03-18T01:09:25.645Z,78.61
2019-03-18T01:11:57.238Z,78.60
2019-03-18T01:14:28.527Z,78.21
2019-03-18T01:16:59.923Z,78.45
2019-03-18T01:19:31.148Z,78.70
2019-03-18T01:22:03.190Z,78.19
2019-03-18T01:24:34.965Z,78.36
2019-03-18T01:27:06.728Z,78.69
2019-03-18T01:29:38.569Z,78.74
2019-03-18T01:32:10.121Z,78.52
2019-03-18T01:34:41.485Z,78.46
2019-03-18T01:37:12.809Z,78.50
2019-03-18T01:39:44.042Z,78.39
2019-03-18T01:42:16.882Z,78.15
2019-03-18T01:44:48.344Z,78.28
2019-03-18T01:47:19.653Z,78.44
2019-03-18T01:49:50.888Z,78.45
2019-03-18T01:52:22.156Z,78.55
2019-03-18T01:54:53.426Z,78.73
2019-03-18T01:57:24.666Z,78.84
2019-03-18T01:59:55.875Z,78.98
2019-03-18T02:02:27.097Z,79.05
2019-03-18T02:04:58.419Z,79.22
2019-03-18T02:07:29.706Z,79.54
2019-03-18T02:10:00.955Z,80.08
2019-03-18T02:12:32.237Z,80.55
2019-03-18T02:15:03.764Z,80.47
2019-03-18T02:17:35.206Z,81.65
2019-03-18T02:20:12.210Z,81.94
2019-03-18T02:22:43.621Z,82.37
2019-03-18T02:25:15.025Z,82.27
2019-03-18T02:27:46.354Z,82.52
2019-03-18T02:30:18.897Z,82.37
2019-03-18T02:32:50.283Z,82.48
2019-03-18T02:35:21.540Z,82.68
2019-03-18T02:37:52.813Z,82.66
2019-03-18T02:40:24.135Z,83.01
2019-03-18T02:42:55.498Z,83.14
2019-03-18T02:45:26.864Z,83.05
2019-03-18T02:47:58.193Z,83.18
2019-03-18T02:50:29.563Z,83.12
2019-03-18T02:53:01.932Z,83.03
2019-03-18T02:55:33.590Z,82.89
2019-03-18T02:58:05.024Z,82.98
2019-03-18T03:00:36.345Z,82.70
2019-03-18T03:03:07.662Z,82.50
2019-03-18T03:05:39.023Z,82.32
2019-03-18T03:08:10.293Z,81.99
2019-03-18T03:10:41.557Z,81.86
2019-03-18T03:13:12.828Z,81.60
2019-03-18T03:15:44.010Z,81.56
2019-03-18T03:18:15.396Z,81.86
2019-03-18T03:20:46.702Z,82.18
2019-03-18T03:23:18.041Z,82.79
2019-03-18T03:25:49.409Z,82.69
2019-03-18T03:28:20.658Z,82.74
2019-03-18T03:30:53.375Z,82.88
2019-03-18T03:33:24.732Z,82.72
2019-03-18T03:35:56.173Z,82.67
2019-03-18T03:38:27.537Z,82.62
2019-03-18T03:40:58.886Z,82.96
2019-03-18T03:43:30.242Z,82.94
2019-03-18T03:46:01.533Z,82.90
2019-03-18T03:48:32.974Z,82.89
2019-03-18T03:51:04.290Z,83.08
2019-03-18T03:53:35.587Z,83.22
2019-03-18T03:56:08.709Z,83.25
2019-03-18T03:58:39.998Z,83.15
2019-03-18T04:01:11.335Z,83.03
2019-03-18T04:03:42.704Z,83.05
2019-03-18T04:06:13.986Z,83.06
2019-03-18T04:08:45.306Z,83.00
2019-03-18T04:11:16.686Z,82.48
2019-03-18T04:13:47.790Z,82.37
2019-03-18T04:16:19.096Z,81.57
2019-03-18T04:18:50.355Z,81.65
2019-03-18T04:21:22.633Z,81.36
2019-03-18T04:23:53.922Z,80.97
2019-03-18T04:26:26.315Z,80.65
2019-03-18T04:28:57.584Z,79.96
2019-03-18T04:31:28.869Z,79.01
2019-03-18T04:34:00.558Z,78.78
2019-03-18T04:36:32.064Z,79.87
2019-03-18T04:39:04.658Z,79.98
2019-03-18T04:41:35.898Z,78.55
2019-03-18T04:44:07.761Z,78.63
2019-03-18T04:46:39.517Z,78.14
2019-03-18T04:49:11.277Z,77.98
2019-03-18T04:51:42.722Z,77.70
2019-03-18T04:54:15.095Z,77.68
2019-03-18T04:56:46.862Z,77.37
2019-03-18T04:59:18.613Z,77.79
2019-03-18T05:01:50.472Z,77.11
2019-03-18T05:04:22.055Z,77.48
2019-03-18T05:06:53.478Z,75.41
2019-03-18T05:09:25.136Z,74.58
2019-03-18T05:11:56.723Z,74.27
2019-03-18T05:14:27.921Z,73.58
2019-03-18T05:16:59.492Z,71.85
2019-03-18T05:19:30.749Z,71.17
2019-03-18T05:22:02.089Z,71.43
2019-03-18T05:24:33.368Z,71.41
2019-03-18T05:27:04.780Z,70.49
2019-03-18T05:29:36.338Z,69.95
2019-03-18T05:32:07.682Z,69.60
2019-03-18T05:34:39.305Z,69.42
2019-03-18T05:37:10.494Z,68.99
2019-03-18T05:39:41.826Z,68.14
2019-03-18T05:42:13.020Z,67.90
2019-03-18T05:44:44.278Z,67.86
2019-03-18T05:47:15.617Z,65.70
2019-03-18T05:49:47.024Z,67.58
2019-03-18T05:52:18.378Z,67.45
2019-03-18T05:54:49.696Z,65.20
2019-03-18T05:57:20.973Z,65.41
2019-03-18T05:59:52.231Z,64.11
2019-03-18T06:02:23.785Z,63.52
2019-03-18T06:04:55.476Z,59.92
2019-03-18T06:07:27.071Z,56.03
2019-03-18T06:09:58.774Z,58.91
2019-03-18T06:12:30.381Z,60.04
2019-03-18T06:15:02.247Z,57.48
2019-03-18T06:17:34.005Z,55.13
2019-03-18T06:20:08.232Z,58.44
2019-03-18T06:22:39.624Z,58.71
2019-03-18T06:25:11.208Z,57.91
2019-03-18T06:27:42.917Z,56.93
2019-03-18T06:30:15.490Z,56.32
2019-03-18T06:32:46.778Z,56.69
2019-03-18T06:35:20.546Z,61.73
2019-03-18T06:37:51.323Z,61.29
2019-03-18T06:40:22.702Z,56.78
2019-03-18T06:42:54.369Z,52.26
2019-03-18T06:45:26.219Z,52.74
2019-03-18T06:48:04.744Z,51.83
2019-03-18T06:50:30.865Z,52.64
2019-03-18T06:53:02.720Z,51.50
2019-03-18T06:55:34.484Z,52.73
2019-03-18T06:58:06.234Z,51.46
2019-03-18T07:00:37.796Z,52.44
2019-03-18T07:03:09.187Z,55.40
2019-03-18T07:05:40.485Z,54.21
2019-03-18T07:08:11.766Z,56.06
2019-03-18T07:10:44.155Z,53.73
2019-03-18T07:13:15.970Z,52.01
2019-03-18T07:15:47.713Z,54.09
2019-03-18T07:18:19.376Z,55.25
2019-03-18T07:20:51.232Z,55.22
2019-03-18T07:23:22.778Z,55.38
2019-03-18T07:25:55.993Z,59.17
2019-03-18T07:28:27.362Z,57.48
2019-03-18T07:30:58.616Z,56.36
2019-03-18T07:33:30.224Z,53.75
2019-03-18T07:36:01.986Z,54.48
2019-03-18T07:38:33.745Z,53.71
2019-03-18T07:41:05.392Z,53.53
2019-03-18T07:43:37.265Z,53.80
2019-03-18T07:46:09.015Z,54.38
2019-03-18T07:48:40.651Z,54.15
2019-03-18T07:51:12.232Z,53.22
2019-03-18T07:53:44.029Z,50.67
2019-03-18T07:56:15.877Z,51.68
2019-03-18T07:58:49.061Z,49.17
2019-03-18T08:01:19.905Z,47.95
2019-03-18T08:03:51.549Z,46.96
2019-03-18T08:06:23.392Z,48.23
2019-03-18T08:08:55.166Z,47.32
2019-03-18T08:11:26.848Z,44.67
2019-03-18T08:13:58.454Z,43.69
2019-03-18T08:16:30.223Z,41.39
2019-03-18T08:19:01.921Z,42.09
2019-03-18T08:21:33.330Z,43.39
2019-03-18T08:24:04.659Z,42.21
2019-03-18T08:26:36.011Z,41.86
2019-03-18T08:29:07.424Z,43.67
2019-03-18T08:31:39.725Z,41.88
2019-03-18T08:34:11.043Z,41.14
2019-03-18T08:36:42.451Z,40.09
2019-03-18T08:39:13.809Z,41.37
2019-03-18T08:41:45.096Z,40.34
2019-03-18T08:44:16.502Z,43.13
2019-03-18T08:46:47.767Z,44.50
2019-03-18T08:49:20.031Z,42.82
2019-03-18T08:51:51.344Z,44.20
2019-03-18T08:54:22.694Z,43.70
2019-03-18T08:56:54.051Z,43.03
2019-03-18T08:59:25.377Z,43.50
2019-03-18T09:01:56.732Z,44.08
2019-03-18T09:04:28.186Z,44.95
2019-03-18T09:06:59.758Z,45.46
2019-03-18T09:09:31.138Z,43.42
2019-03-18T09:12:02.429Z,45.04
2019-03-18T09:14:33.772Z,46.20
2019-03-18T09:17:05.340Z,46.64
2019-03-18T09:19:37.009Z,44.62
2019-03-18T09:22:08.651Z,43.46
2019-03-18T09:24:40.521Z,46.49
2019-03-18T09:27:12.271Z,41.73
2019-03-18T09:29:44.049Z,40.07
2019-03-18T09:32:15.662Z,42.67
2019-03-18T09:34:47.387Z,44.44
2019-03-18T09:37:19.161Z,42.51
2019-03-18T09:39:50.529Z,37.96
2019-03-18T09:42:21.797Z,37.56
2019-03-18T09:44:53.042Z,39.13
2019-03-18T09:47:24.356Z,36.67
2019-03-18T09:49:56.982Z,36.27
2019-03-18T09:52:28.272Z,34.91
2019-03-18T09:54:59.526Z,35.23
2019-03-18T09:57:30.744Z,36.55
2019-03-18T10:00:01.961Z,37.21
2019-03-18T10:02:33.246Z,37.89
2019-03-18T10:05:05.941Z,39.73
2019-03-18T10:07:39.698Z,39.55
2019-03-18T10:10:11.628Z,39.00
2019-03-18T10:12:42.758Z,39.68
2019-03-18T10:15:18.327Z,38.22
2019-03-18T10:17:49.574Z,37.70
2019-03-18T10:20:22.761Z,37.86
2019-03-18T10:22:55.614Z,38.30
2019-03-18T10:25:26.143Z,39.27
2019-03-18T10:27:57.408Z,38.84
2019-03-18T10:30:28.903Z,36.73
2019-03-18T10:33:00.319Z,35.47
2019-03-18T10:35:31.509Z,36.29
2019-03-18T10:38:05.689Z,35.93
2019-03-18T10:40:36.947Z,36.17
2019-03-18T10:43:08.292Z,36.72
2019-03-18T10:45:40.469Z,38.73
2019-03-18T10:48:12.150Z,37.79
2019-03-18T10:50:43.475Z,37.16
2019-03-18T10:53:14.733Z,36.33
2019-03-18T10:55:45.870Z,38.28
2019-03-18T10:58:18.210Z,38.19
2019-03-18T11:00:49.728Z,37.75
2019-03-18T11:03:21.101Z,38.84
2019-03-18T11:05:52.478Z,37.73
2019-03-18T11:08:24.256Z,39.83
2019-03-18T11:10:55.474Z,39.64
2019-03-18T11:13:26.708Z,38.38
2019-03-18T11:15:59.347Z,37.22
2019-03-18T11:18:30.708Z,37.10
2019-03-18T11:21:02.424Z,36.59
2019-03-18T11:23:34.065Z,36.20
2019-03-18T11:26:05.839Z,35.72
2019-03-18T11:28:37.487Z,37.38
2019-03-18T11:31:09.098Z,36.06
2019-03-18T11:33:40.703Z,36.77
2019-03-18T11:36:12.243Z,38.05
2019-03-18T11:38:43.859Z,36.84
2019-03-18T11:41:17.525Z,36.01
2019-03-18T11:43:48.441Z,38.23
2019-03-18T11:46:21.124Z,37.54
2019-03-18T11:48:52.366Z,37.62
2019-03-18T11:51:26.581Z,36.08
2019-03-18T11:53:58.247Z,36.86
2019-03-18T11:56:29.749Z,36.57
2019-03-18T11:59:00.837Z,36.14
2019-03-18T12:01:32.054Z,34.98
2019-03-18T12:04:03.424Z,35.53
2019-03-18T12:06:35.090Z,36.07
2019-03-18T12:09:06.988Z,34.52
2019-03-18T12:11:38.921Z,35.90
2019-03-18T12:14:10.524Z,35.97
2019-03-18T12:16:41.795Z,35.42
2019-03-18T12:19:12.925Z,35.44
2019-03-18T12:21:44.301Z,36.79
2019-03-18T12:24:15.660Z,36.49
2019-03-18T12:26:49.203Z,37.48
2019-03-18T12:29:19.439Z,36.29
2019-03-18T12:31:50.560Z,35.64
2019-03-18T12:34:24.066Z,33.54
2019-03-18T12:36:56.584Z,33.08
2019-03-18T12:39:29.067Z,33.95
2019-03-18T12:42:00.562Z,34.67
2019-03-18T12:44:31.697Z,35.30
2019-03-18T12:47:02.974Z,35.86
2019-03-18T12:49:34.307Z,35.82
2019-03-18T12:52:05.546Z,34.57
2019-03-18T12:54:36.851Z,35.29
2019-03-18T12:57:08.122Z,34.26
2019-03-18T12:59:39.282Z,34.95
2019-03-18T13:02:10.502Z,33.81
2019-03-18T13:04:42.751Z,33.89
2019-03-18T13:07:14.407Z,34.60
2019-03-18T13:09:46.011Z,37.45
2019-03-18T13:12:17.475Z,36.82
2019-03-18T13:14:48.919Z,35.24
2019-03-18T13:17:20.481Z,34.34
2019-03-18T13:19:51.829Z,35.50
2019-03-18T13:22:22.938Z,34.98
2019-03-18T13:24:54.100Z,35.53
2019-03-18T13:27:25.684Z,36.13
2019-03-18T13:29:57.045Z,36.36
2019-03-18T13:32:28.312Z,37.16
2019-03-18T13:34:59.644Z,37.74
2019-03-18T13:37:33.486Z,38.16
2019-03-18T13:40:10.199Z,38.08
2019-03-18T13:42:41.904Z,38.33
2019-03-18T13:45:21.330Z,38.57
2019-03-18T13:47:52.680Z,38.59
2019-03-18T13:50:24.335Z,38.93
2019-03-18T13:52:56.302Z,39.92
2019-03-18T13:55:27.745Z,39.44
2019-03-18T13:57:59.830Z,39.21
2019-03-18T14:00:31.495Z,39.83
2019-03-18T14:03:03.231Z,39.84
2019-03-18T14:05:34.510Z,40.31
2019-03-18T14:08:05.788Z,40.41
2019-03-18T14:10:37.268Z,39.58
2019-03-18T14:13:08.931Z,39.63
2019-03-18T14:15:40.694Z,40.05
2019-03-18T14:18:12.754Z,39.49
2019-03-18T14:20:44.516Z,40.39
2019-03-18T14:23:16.274Z,39.96
2019-03-18T14:25:50.900Z,39.37
2019-03-18T14:28:22.593Z,39.52
2019-03-18T14:30:54.424Z,39.84
2019-03-18T14:33:28.320Z,40.23
2019-03-18T14:36:00.261Z,40.58
2019-03-18T14:38:31.642Z,39.92
2019-03-18T14:41:04.154Z,39.64
2019-03-18T14:43:35.471Z,39.88
2019-03-18T14:46:06.794Z,40.05
2019-03-18T14:48:38.245Z,39.98
2019-03-18T14:51:09.658Z,40.64
2019-03-18T14:53:41.067Z,40.40
2019-03-18T14:56:12.400Z,40.29
2019-03-18T14:58:43.735Z,40.11
2019-03-18T15:01:15.212Z,40.18
2019-03-18T15:03:46.501Z,40.24
2019-03-18T15:06:17.850Z,40.58
2019-03-18T15:08:49.190Z,40.78
2019-03-18T15:11:20.471Z,40.61
2019-03-18T15:13:51.761Z,40.62
2019-03-18T15:16:23.038Z,40.75
2019-03-18T15:18:55.256Z,40.60
2019-03-18T15:21:26.633Z,40.60
2019-03-18T15:23:57.861Z,41.39
2019-03-18T15:26:29.123Z,41.07
2019-03-18T15:29:00.453Z,41.50
2019-03-18T15:31:31.649Z,41.79
2019-03-18T15:34:02.985Z,41.76
2019-03-18T15:36:34.361Z,41.57
2019-03-18T15:39:06.992Z,41.85
2019-03-18T15:41:39.947Z,42.06
2019-03-18T15:44:11.238Z,42.94
2019-03-18T15:46:42.649Z,42.55
2019-03-18T15:49:13.942Z,43.38
2019-03-18T15:51:45.300Z,42.81
2019-03-18T15:54:16.763Z,43.16
2019-03-18T15:56:48.292Z,43.31
2019-03-18T15:59:20.163Z,43.55
2019-03-18T16:01:51.683Z,43.70
2019-03-18T16:04:23.060Z,43.94
2019-03-18T16:06:54.402Z,44.57
2019-03-18T16:09:25.739Z,44.52
2019-03-18T16:11:57.126Z,43.81
2019-03-18T16:14:28.509Z,45.02
2019-03-18T16:17:02.178Z,43.94
2019-03-18T16:19:32.875Z,44.04
2019-03-18T16:22:04.284Z,44.92
2019-03-18T16:24:35.650Z,44.62
2019-03-18T16:27:07.065Z,44.62
2019-03-18T16:29:38.480Z,45.17
2019-03-18T16:32:11.670Z,45.33
2019-03-18T16:34:43.295Z,45.35
2019-03-18T16:37:14.548Z,45.53
2019-03-18T16:39:45.832Z,45.90
2019-03-18T16:42:17.185Z,46.12
2019-03-18T16:44:48.424Z,46.57
2019-03-18T16:47:19.737Z,47.25
2019-03-18T16:49:51.194Z,47.72
2019-03-18T16:52:34.999Z,47.62
2019-03-18T16:54:56.028Z,47.99
2019-03-18T16:57:27.583Z,48.36
2019-03-18T16:59:58.849Z,48.46
2019-03-18T17:02:30.223Z,49.01
2019-03-18T17:05:01.404Z,49.25
2019-03-18T17:07:32.677Z,49.04
2019-03-18T17:10:06.701Z,49.69
2019-03-18T17:12:38.031Z,49.86
2019-03-18T17:15:11.513Z,49.85
2019-03-18T17:17:42.858Z,49.97
2019-03-18T17:20:16.315Z,50.36
2019-03-18T17:22:50.178Z,50.91
2019-03-18T17:25:28.663Z,50.95
2019-03-18T17:27:59.979Z,50.80
2019-03-18T17:30:31.332Z,51.01
2019-03-18T17:33:02.547Z,50.82
2019-03-18T17:35:33.819Z,50.80
2019-03-18T17:38:05.092Z,51.64
2019-03-18T17:40:36.421Z,52.29
2019-03-18T17:43:07.724Z,52.40
2019-03-18T17:45:39.213Z,52.56
2019-03-18T17:48:10.535Z,52.73
2019-03-18T17:50:41.831Z,53.04
2019-03-18T17:53:13.169Z,52.78
2019-03-18T17:55:44.555Z,52.73
2019-03-18T17:58:15.819Z,52.54
2019-03-18T18:00:48.711Z,52.24
2019-03-18T18:03:19.372Z,52.68
2019-03-18T18:05:51.587Z,53.10
2019-03-18T18:08:23.059Z,53.11
2019-03-18T18:10:54.325Z,53.42
2019-03-18T18:13:25.526Z,54.04
2019-03-18T18:15:56.864Z,54.40
2019-03-18T18:18:28.288Z,55.20
2019-03-18T18:20:59.567Z,55.30
2019-03-18T18:23:30.942Z,56.05
2019-03-18T18:26:02.417Z,56.33
2019-03-18T18:28:33.708Z,56.87
2019-03-18T18:31:05.390Z,56.93
2019-03-18T18:33:36.813Z,56.78
2019-03-18T18:36:08.047Z,56.79
2019-03-18T18:38:39.540Z,56.73
2019-03-18T18:41:12.550Z,57.02
2019-03-18T18:43:43.840Z,57.46
2019-03-18T18:46:16.389Z,57.71
2019-03-18T18:48:48.616Z,57.58
2019-03-18T18:51:19.979Z,57.83
2019-03-18T18:53:51.150Z,58.26
2019-03-18T18:56:22.403Z,58.86
2019-03-18T18:58:54.554Z,59.14
2019-03-18T19:01:25.825Z,58.71
2019-03-18T19:03:58.224Z,59.07
2019-03-18T19:06:29.450Z,59.51
2019-03-18T19:09:00.843Z,59.79
2019-03-18T19:11:32.306Z,59.68
2019-03-18T19:14:03.841Z,59.70
2019-03-18T19:16:35.092Z,59.92
2019-03-18T19:19:06.290Z,60.51
2019-03-18T19:21:37.839Z,60.59
2019-03-18T19:24:09.075Z,60.99
2019-03-18T19:26:40.752Z,61.02
2019-03-18T19:29:13.207Z,60.50
2019-03-18T19:31:44.545Z,60.64
2019-03-18T19:34:15.877Z,60.41
2019-03-18T19:36:47.181Z,60.44
2019-03-18T19:39:18.354Z,60.21
2019-03-18T19:41:49.681Z,60.66
2019-03-18T19:44:21.009Z,60.37
2019-03-18T19:46:52.242Z,59.54
2019-03-18T19:49:23.609Z,59.93
2019-03-18T19:51:54.847Z,59.94
2019-03-18T19:54:26.025Z,61.12
2019-03-18T19:56:58.320Z,61.82
2019-03-18T19:59:29.545Z,62.39
2019-03-18T20:02:01.117Z,62.16
2019-03-18T20:04:32.376Z,62.57
2019-03-18T20:07:03.790Z,63.01
2019-03-18T20:09:35.144Z,63.35
2019-03-18T20:12:06.396Z,64.13
2019-03-18T20:14:37.594Z,63.97
2019-03-18T20:17:08.871Z,62.35
2019-03-18T20:19:40.137Z,63.39
2019-03-18T20:22:11.430Z,63.23
2019-03-18T20:24:42.819Z,62.90
2019-03-18T20:27:14.234Z,62.98
2019-03-18T20:29:45.336Z,63.11
2019-03-18T20:32:16.657Z,62.72
2019-03-18T20:34:48.060Z,62.09
2019-03-18T20:37:19.402Z,62.94
2019-03-18T20:39:50.758Z,61.03
2019-03-18T20:42:22.072Z,61.68
2019-03-18T20:44:53.856Z,61.92
2019-03-18T20:47:25.277Z,61.21
2019-03-18T20:49:56.598Z,61.70
2019-03-18T20:52:27.934Z,62.81
2019-03-18T20:54:59.427Z,62.53
2019-03-18T20:57:31.261Z,61.34
2019-03-18T21:00:02.626Z,62.50
2019-03-18T21:02:34.156Z,63.24
2019-03-18T21:05:07.571Z,63.86
2019-03-18T21:07:38.774Z,63.55
2019-03-18T21:10:12.783Z,63.87
2019-03-18T21:12:44.151Z,63.99
2019-03-18T21:15:17.393Z,64.52
2019-03-18T21:17:48.694Z,64.61
2019-03-18T21:20:21.218Z,64.90
2019-03-18T21:22:52.479Z,63.80
2019-03-18T21:25:23.777Z,63.58
2019-03-18T21:27:55.088Z,62.57
2019-03-18T21:30:26.419Z,63.36
2019-03-18T21:32:57.674Z,62.95
2019-03-18T21:35:28.947Z,62.89
2019-03-18T21:38:00.307Z,62.61
2019-03-18T21:40:31.644Z,61.83
2019-03-18T21:43:02.912Z,61.86
2019-03-18T21:45:34.205Z,62.83
2019-03-18T21:48:05.394Z,63.18
2019-03-18T21:50:36.502Z,63.08
2019-03-18T21:53:07.852Z,63.77
2019-03-18T21:55:39.111Z,63.62
2019-03-18T21:58:10.421Z,62.81
2019-03-18T22:00:41.751Z,62.62
2019-03-18T22:03:13.076Z,62.45
2019-03-18T22:05:44.366Z,62.52
2019-03-18T22:08:15.610Z,62.28
2019-03-18T22:10:46.799Z,61.67
2019-03-18T22:13:18.113Z,61.83
2019-03-18T22:15:49.421Z,62.44
2019-03-18T22:18:22.298Z,61.86
2019-03-18T22:20:53.651Z,62.32
2019-03-18T22:23:24.885Z,62.46
2019-03-18T22:25:56.100Z,62.85
2019-03-18T22:28:27.412Z,62.84
2019-03-18T22:30:58.662Z,63.27
2019-03-18T22:33:31.021Z,63.73
2019-03-18T22:36:02.339Z,63.45
2019-03-18T22:38:33.768Z,64.25
2019-03-18T22:41:05.244Z,64.26
2019-03-18T22:43:36.508Z,64.90
2019-03-18T22:46:07.802Z,64.51
2019-03-18T22:48:38.916Z,65.13
2019-03-18T22:51:10.325Z,65.00
2019-03-18T22:53:41.612Z,64.71
2019-03-18T22:56:12.873Z,64.48
2019-03-18T22:58:44.079Z,64.45
2019-03-18T23:01:16.748Z,65.11
2019-03-18T23:03:47.958Z,64.38
2019-03-18T23:06:19.202Z,65.20
2019-03-18T23:08:50.532Z,64.53
2019-03-18T23:11:22.082Z,64.56
2019-03-18T23:13:53.321Z,64.71
2019-03-18T23:16:24.592Z,64.80
2019-03-18T23:18:55.912Z,64.75
2019-03-18T23:21:27.572Z,65.09
2019-03-18T23:23:59.428Z,64.94
2019-03-18T23:26:30.784Z,64.71
2019-03-18T23:29:01.980Z,65.21
2019-03-18T23:31:33.056Z,65.19
2019-03-18T23:34:04.303Z,65.02
2019-03-18T23:36:36.786Z,65.13
2019-03-18T23:39:08.607Z,65.13
2019-03-18T23:41:39.879Z,65.40
2019-03-18T23:44:11.013Z,65.79
2019-03-18T23:46:42.182Z,66.36
2019-03-18T23:49:13.306Z,66.56
2019-03-18T23:51:44.490Z,66.82
2019-03-18T23:54:15.736Z,67.18
2019-03-18T23:56:47.009Z,67.17
2019-03-18T23:59:18.169Z,67.58
